sensor_id;sensor_type;location;lat;lon;timestamp;P1;durP1;ratioP1;P2;durP2;ratioP2
22786;SDS011;63134;52.020;4.714;2023-04-25T00:02:35;27.52;;;5.43;;
22786;SDS011;63134;52.020;4.714;2023-04-25T00:05:21;28.65;;;5.88;;
22786;SDS011;63134;52.020;4.714;2023-04-25T00:08:12;27.75;;;5.80;;
22786;SDS011;63134;52.020;4.714;2023-04-25T00:11:00;26.70;;;5.30;;
22786;SDS011;63134;52.020;4.714;2023-04-25T00:13:45;41.10;;;6.32;;
22786;SDS011;63134;52.020;4.714;2023-04-25T00:16:31;31.48;;;5.97;;
22786;SDS011;63134;52.020;4.714;2023-04-25T00:19:19;33.65;;;6.18;;
22786;SDS011;63134;52.020;4.714;2023-04-25T00:22:04;32.25;;;5.45;;
22786;SDS011;63134;52.020;4.714;2023-04-25T00:24:50;30.55;;;5.82;;
22786;SDS011;63134;52.020;4.714;2023-04-25T00:27:38;26.98;;;5.20;;
22786;SDS011;63134;52.020;4.714;2023-04-25T00:30:24;31.35;;;5.93;;
22786;SDS011;63134;52.020;4.714;2023-04-25T00:33:09;37.83;;;6.18;;
22786;SDS011;63134;52.020;4.714;2023-04-25T00:35:55;33.25;;;6.22;;
22786;SDS011;63134;52.020;4.714;2023-04-25T00:38:41;31.65;;;5.45;;
22786;SDS011;63134;52.020;4.714;2023-04-25T00:41:26;37.00;;;7.88;;
22786;SDS011;63134;52.020;4.714;2023-04-25T00:44:15;33.75;;;5.55;;
22786;SDS011;63134;52.020;4.714;2023-04-25T00:47:01;33.13;;;6.10;;
22786;SDS011;63134;52.020;4.714;2023-04-25T00:49:47;26.30;;;5.30;;
22786;SDS011;63134;52.020;4.714;2023-04-25T00:52:32;44.20;;;6.90;;
22786;SDS011;63134;52.020;4.714;2023-04-25T00:55:18;28.33;;;5.28;;
22786;SDS011;63134;52.020;4.714;2023-04-25T00:58:05;22.70;;;4.80;;
22786;SDS011;63134;52.020;4.714;2023-04-25T01:00:53;23.42;;;5.68;;
22786;SDS011;63134;52.020;4.714;2023-04-25T01:03:43;19.27;;;4.03;;
22786;SDS011;63134;52.020;4.714;2023-04-25T01:06:31;21.13;;;4.40;;
22786;SDS011;63134;52.020;4.714;2023-04-25T01:09:17;24.83;;;4.93;;
22786;SDS011;63134;52.020;4.714;2023-04-25T01:12:08;26.45;;;5.10;;
22786;SDS011;63134;52.020;4.714;2023-04-25T01:14:54;25.55;;;4.55;;
22786;SDS011;63134;52.020;4.714;2023-04-25T01:17:40;21.10;;;5.72;;
22786;SDS011;63134;52.020;4.714;2023-04-25T01:20:26;24.60;;;5.40;;
22786;SDS011;63134;52.020;4.714;2023-04-25T01:23:14;22.67;;;5.32;;
22786;SDS011;63134;52.020;4.714;2023-04-25T01:26:00;27.55;;;5.05;;
22786;SDS011;63134;52.020;4.714;2023-04-25T01:28:47;22.10;;;4.65;;
22786;SDS011;63134;52.020;4.714;2023-04-25T01:31:34;18.40;;;4.70;;
22786;SDS011;63134;52.020;4.714;2023-04-25T01:34:20;32.17;;;4.75;;
22786;SDS011;63134;52.020;4.714;2023-04-25T01:37:06;21.55;;;4.50;;
22786;SDS011;63134;52.020;4.714;2023-04-25T01:39:51;23.58;;;4.95;;
22786;SDS011;63134;52.020;4.714;2023-04-25T01:42:38;28.17;;;5.13;;
22786;SDS011;63134;52.020;4.714;2023-04-25T01:45:26;26.42;;;4.75;;
22786;SDS011;63134;52.020;4.714;2023-04-25T01:48:12;20.45;;;4.60;;
22786;SDS011;63134;52.020;4.714;2023-04-25T01:51:00;20.10;;;4.60;;
22786;SDS011;63134;52.020;4.714;2023-04-25T01:53:47;23.27;;;4.88;;
22786;SDS011;63134;52.020;4.714;2023-04-25T01:56:34;31.52;;;5.43;;
22786;SDS011;63134;52.020;4.714;2023-04-25T01:59:24;24.15;;;5.22;;
22786;SDS011;63134;52.020;4.714;2023-04-25T02:02:30;26.02;;;4.25;;
22786;SDS011;63134;52.020;4.714;2023-04-25T02:05:16;15.00;;;4.15;;
22786;SDS011;63134;52.020;4.714;2023-04-25T02:08:03;23.52;;;4.55;;
22786;SDS011;63134;52.020;4.714;2023-04-25T02:10:53;20.52;;;3.95;;
22786;SDS011;63134;52.020;4.714;2023-04-25T02:13:41;21.17;;;4.20;;
22786;SDS011;63134;52.020;4.714;2023-04-25T02:16:49;26.92;;;5.22;;
22786;SDS011;63134;52.020;4.714;2023-04-25T02:19:38;36.83;;;4.95;;
22786;SDS011;63134;52.020;4.714;2023-04-25T02:22:25;21.05;;;4.15;;
22786;SDS011;63134;52.020;4.714;2023-04-25T02:25:11;37.42;;;5.22;;
22786;SDS011;63134;52.020;4.714;2023-04-25T02:27:58;22.00;;;4.70;;
22786;SDS011;63134;52.020;4.714;2023-04-25T02:30:44;20.58;;;4.80;;
22786;SDS011;63134;52.020;4.714;2023-04-25T02:33:29;19.45;;;4.00;;
22786;SDS011;63134;52.020;4.714;2023-04-25T02:36:15;28.27;;;4.65;;
22786;SDS011;63134;52.020;4.714;2023-04-25T02:39:01;27.42;;;4.43;;
22786;SDS011;63134;52.020;4.714;2023-04-25T02:41:48;17.10;;;3.97;;
22786;SDS011;63134;52.020;4.714;2023-04-25T02:44:33;14.43;;;3.92;;
22786;SDS011;63134;52.020;4.714;2023-04-25T02:47:18;15.80;;;3.88;;
22786;SDS011;63134;52.020;4.714;2023-04-25T02:50:04;24.48;;;3.95;;
22786;SDS011;63134;52.020;4.714;2023-04-25T02:52:50;22.27;;;4.45;;
22786;SDS011;63134;52.020;4.714;2023-04-25T02:55:42;19.08;;;4.05;;
22786;SDS011;63134;52.020;4.714;2023-04-25T02:58:27;19.13;;;3.65;;
22786;SDS011;63134;52.020;4.714;2023-04-25T03:01:13;17.92;;;3.47;;
22786;SDS011;63134;52.020;4.714;2023-04-25T03:03:58;25.20;;;3.30;;
22786;SDS011;63134;52.020;4.714;2023-04-25T03:06:44;22.38;;;3.80;;
22786;SDS011;63134;52.020;4.714;2023-04-25T03:09:30;18.75;;;3.90;;
22786;SDS011;63134;52.020;4.714;2023-04-25T03:12:21;20.85;;;4.03;;
22786;SDS011;63134;52.020;4.714;2023-04-25T03:15:07;24.70;;;3.53;;
22786;SDS011;63134;52.020;4.714;2023-04-25T03:17:53;17.50;;;4.03;;
22786;SDS011;63134;52.020;4.714;2023-04-25T03:20:38;15.45;;;4.32;;
22786;SDS011;63134;52.020;4.714;2023-04-25T03:23:26;15.15;;;3.50;;
22786;SDS011;63134;52.020;4.714;2023-04-25T03:26:15;19.85;;;4.00;;
22786;SDS011;63134;52.020;4.714;2023-04-25T03:29:00;20.13;;;3.53;;
22786;SDS011;63134;52.020;4.714;2023-04-25T03:31:46;21.55;;;3.83;;
22786;SDS011;63134;52.020;4.714;2023-04-25T03:34:32;17.20;;;3.03;;
22786;SDS011;63134;52.020;4.714;2023-04-25T03:37:18;16.52;;;3.47;;
22786;SDS011;63134;52.020;4.714;2023-04-25T03:40:05;17.00;;;3.65;;
22786;SDS011;63134;52.020;4.714;2023-04-25T03:43:11;15.80;;;2.97;;
22786;SDS011;63134;52.020;4.714;2023-04-25T03:46:00;18.95;;;3.25;;
22786;SDS011;63134;52.020;4.714;2023-04-25T03:48:46;22.40;;;3.38;;
22786;SDS011;63134;52.020;4.714;2023-04-25T03:51:38;24.30;;;3.92;;
22786;SDS011;63134;52.020;4.714;2023-04-25T03:54:26;26.55;;;3.65;;
22786;SDS011;63134;52.020;4.714;2023-04-25T03:57:16;20.98;;;4.50;;
22786;SDS011;63134;52.020;4.714;2023-04-25T04:00:02;22.77;;;3.33;;
22786;SDS011;63134;52.020;4.714;2023-04-25T04:02:57;17.52;;;3.47;;
22786;SDS011;63134;52.020;4.714;2023-04-25T04:05:45;18.70;;;3.00;;
22786;SDS011;63134;52.020;4.714;2023-04-25T04:08:31;18.02;;;3.85;;
22786;SDS011;63134;52.020;4.714;2023-04-25T04:11:17;12.88;;;3.20;;
22786;SDS011;63134;52.020;4.714;2023-04-25T04:14:02;18.98;;;3.78;;
22786;SDS011;63134;52.020;4.714;2023-04-25T04:16:52;17.92;;;3.17;;
22786;SDS011;63134;52.020;4.714;2023-04-25T04:19:38;20.27;;;3.30;;
22786;SDS011;63134;52.020;4.714;2023-04-25T04:22:30;21.35;;;3.42;;
22786;SDS011;63134;52.020;4.714;2023-04-25T04:25:19;19.50;;;3.30;;
22786;SDS011;63134;52.020;4.714;2023-04-25T04:28:25;18.50;;;4.50;;
22786;SDS011;63134;52.020;4.714;2023-04-25T04:31:37;27.75;;;3.75;;
22786;SDS011;63134;52.020;4.714;2023-04-25T04:34:24;17.98;;;4.22;;
22786;SDS011;63134;52.020;4.714;2023-04-25T04:37:10;14.48;;;2.72;;
22786;SDS011;63134;52.020;4.714;2023-04-25T04:39:59;24.58;;;3.50;;
22786;SDS011;63134;52.020;4.714;2023-04-25T04:43:08;20.85;;;3.28;;
22786;SDS011;63134;52.020;4.714;2023-04-25T04:46:07;11.02;;;3.28;;
22786;SDS011;63134;52.020;4.714;2023-04-25T04:49:18;15.70;;;2.85;;
22786;SDS011;63134;52.020;4.714;2023-04-25T04:52:22;13.90;;;2.92;;
22786;SDS011;63134;52.020;4.714;2023-04-25T04:55:21;15.25;;;2.53;;
22786;SDS011;63134;52.020;4.714;2023-04-25T04:58:21;13.25;;;3.10;;
22786;SDS011;63134;52.020;4.714;2023-04-25T05:01:37;14.65;;;2.67;;
22786;SDS011;63134;52.020;4.714;2023-04-25T05:04:40;9.77;;;3.10;;
22786;SDS011;63134;52.020;4.714;2023-04-25T05:07:42;10.35;;;3.00;;
22786;SDS011;63134;52.020;4.714;2023-04-25T05:10:41;13.77;;;3.13;;
22786;SDS011;63134;52.020;4.714;2023-04-25T05:13:40;14.23;;;2.90;;
22786;SDS011;63134;52.020;4.714;2023-04-25T05:16:36;14.75;;;3.25;;
22786;SDS011;63134;52.020;4.714;2023-04-25T05:19:43;14.95;;;2.80;;
22786;SDS011;63134;52.020;4.714;2023-04-25T05:22:36;20.08;;;3.45;;
22786;SDS011;63134;52.020;4.714;2023-04-25T05:25:29;7.82;;;2.50;;
22786;SDS011;63134;52.020;4.714;2023-04-25T05:28:24;16.90;;;3.22;;
22786;SDS011;63134;52.020;4.714;2023-04-25T05:31:21;13.63;;;3.35;;
22786;SDS011;63134;52.020;4.714;2023-04-25T05:34:12;13.98;;;3.08;;
22786;SDS011;63134;52.020;4.714;2023-04-25T05:37:08;14.80;;;2.92;;
22786;SDS011;63134;52.020;4.714;2023-04-25T05:40:05;13.05;;;3.20;;
22786;SDS011;63134;52.020;4.714;2023-04-25T05:43:08;11.95;;;3.20;;
22786;SDS011;63134;52.020;4.714;2023-04-25T05:46:13;10.95;;;3.22;;
22786;SDS011;63134;52.020;4.714;2023-04-25T05:49:22;14.07;;;2.60;;
22786;SDS011;63134;52.020;4.714;2023-04-25T05:52:14;8.32;;;2.53;;
22786;SDS011;63134;52.020;4.714;2023-04-25T05:55:05;14.00;;;2.83;;
22786;SDS011;63134;52.020;4.714;2023-04-25T05:57:51;14.10;;;3.28;;
22786;SDS011;63134;52.020;4.714;2023-04-25T06:00:36;13.93;;;2.90;;
22786;SDS011;63134;52.020;4.714;2023-04-25T06:03:22;12.85;;;3.20;;
22786;SDS011;63134;52.020;4.714;2023-04-25T06:06:09;9.88;;;2.60;;
22786;SDS011;63134;52.020;4.714;2023-04-25T06:08:56;9.02;;;2.92;;
22786;SDS011;63134;52.020;4.714;2023-04-25T06:11:42;14.45;;;2.15;;
22786;SDS011;63134;52.020;4.714;2023-04-25T06:14:28;8.85;;;2.38;;
22786;SDS011;63134;52.020;4.714;2023-04-25T06:17:13;9.23;;;2.45;;
22786;SDS011;63134;52.020;4.714;2023-04-25T06:20:02;8.00;;;2.13;;
22786;SDS011;63134;52.020;4.714;2023-04-25T06:22:51;18.75;;;2.83;;
22786;SDS011;63134;52.020;4.714;2023-04-25T06:25:42;7.95;;;2.10;;
22786;SDS011;63134;52.020;4.714;2023-04-25T06:28:27;9.90;;;2.55;;
22786;SDS011;63134;52.020;4.714;2023-04-25T06:31:14;10.52;;;1.98;;
22786;SDS011;63134;52.020;4.714;2023-04-25T06:34:02;8.80;;;2.25;;
22786;SDS011;63134;52.020;4.714;2023-04-25T06:36:51;7.72;;;1.98;;
22786;SDS011;63134;52.020;4.714;2023-04-25T06:39:38;7.53;;;2.17;;
22786;SDS011;63134;52.020;4.714;2023-04-25T06:42:28;11.15;;;2.72;;
22786;SDS011;63134;52.020;4.714;2023-04-25T06:45:16;11.43;;;2.47;;
22786;SDS011;63134;52.020;4.714;2023-04-25T06:48:02;11.85;;;2.67;;
22786;SDS011;63134;52.020;4.714;2023-04-25T06:50:47;13.18;;;2.38;;
22786;SDS011;63134;52.020;4.714;2023-04-25T06:53:33;13.65;;;2.70;;
22786;SDS011;63134;52.020;4.714;2023-04-25T06:56:21;15.23;;;2.83;;
22786;SDS011;63134;52.020;4.714;2023-04-25T07:02:13;8.30;;;2.50;;
22786;SDS011;63134;52.020;4.714;2023-04-25T07:04:59;10.52;;;2.63;;
22786;SDS011;63134;52.020;4.714;2023-04-25T07:07:46;13.18;;;2.60;;
22786;SDS011;63134;52.020;4.714;2023-04-25T07:10:32;14.48;;;2.83;;
22786;SDS011;63134;52.020;4.714;2023-04-25T07:13:17;14.15;;;2.42;;
22786;SDS011;63134;52.020;4.714;2023-04-25T07:16:03;11.35;;;2.85;;
22786;SDS011;63134;52.020;4.714;2023-04-25T07:18:50;11.38;;;2.53;;
22786;SDS011;63134;52.020;4.714;2023-04-25T07:21:37;15.75;;;3.40;;
22786;SDS011;63134;52.020;4.714;2023-04-25T07:24:23;12.40;;;2.58;;
22786;SDS011;63134;52.020;4.714;2023-04-25T07:27:11;16.13;;;2.67;;
22786;SDS011;63134;52.020;4.714;2023-04-25T07:30:08;9.88;;;2.30;;
22786;SDS011;63134;52.020;4.714;2023-04-25T07:32:56;12.88;;;2.40;;
22786;SDS011;63134;52.020;4.714;2023-04-25T07:35:42;13.10;;;2.58;;
22786;SDS011;63134;52.020;4.714;2023-04-25T07:38:31;12.77;;;2.47;;
22786;SDS011;63134;52.020;4.714;2023-04-25T07:41:18;9.45;;;2.17;;
22786;SDS011;63134;52.020;4.714;2023-04-25T07:44:03;8.82;;;2.60;;
22786;SDS011;63134;52.020;4.714;2023-04-25T07:46:50;8.55;;;2.38;;
22786;SDS011;63134;52.020;4.714;2023-04-25T07:49:36;18.52;;;2.70;;
22786;SDS011;63134;52.020;4.714;2023-04-25T07:52:23;11.68;;;2.33;;
22786;SDS011;63134;52.020;4.714;2023-04-25T07:55:17;10.15;;;2.38;;
22786;SDS011;63134;52.020;4.714;2023-04-25T07:58:22;12.43;;;2.33;;
22786;SDS011;63134;52.020;4.714;2023-04-25T08:01:12;12.98;;;2.15;;
22786;SDS011;63134;52.020;4.714;2023-04-25T08:04:07;10.05;;;2.55;;
22786;SDS011;63134;52.020;4.714;2023-04-25T08:07:08;11.15;;;2.55;;
22786;SDS011;63134;52.020;4.714;2023-04-25T08:10:02;10.53;;;2.37;;
22786;SDS011;63134;52.020;4.714;2023-04-25T08:12:50;11.70;;;2.60;;
22786;SDS011;63134;52.020;4.714;2023-04-25T08:15:36;12.38;;;2.72;;
22786;SDS011;63134;52.020;4.714;2023-04-25T08:18:22;8.68;;;2.13;;
22786;SDS011;63134;52.020;4.714;2023-04-25T08:21:08;17.35;;;2.50;;
22786;SDS011;63134;52.020;4.714;2023-04-25T08:23:56;15.50;;;2.88;;
22786;SDS011;63134;52.020;4.714;2023-04-25T08:26:47;9.77;;;2.40;;
22786;SDS011;63134;52.020;4.714;2023-04-25T08:29:35;12.93;;;2.33;;
22786;SDS011;63134;52.020;4.714;2023-04-25T08:32:20;17.05;;;3.22;;
22786;SDS011;63134;52.020;4.714;2023-04-25T08:35:38;13.60;;;2.75;;
22786;SDS011;63134;52.020;4.714;2023-04-25T08:38:24;16.38;;;3.47;;
22786;SDS011;63134;52.020;4.714;2023-04-25T08:41:11;10.10;;;2.33;;
22786;SDS011;63134;52.020;4.714;2023-04-25T08:43:57;7.97;;;1.98;;
22786;SDS011;63134;52.020;4.714;2023-04-25T08:46:45;11.32;;;2.45;;
22786;SDS011;63134;52.020;4.714;2023-04-25T08:49:44;10.65;;;2.25;;
22786;SDS011;63134;52.020;4.714;2023-04-25T08:52:35;13.68;;;2.70;;
22786;SDS011;63134;52.020;4.714;2023-04-25T08:55:24;11.00;;;2.00;;
22786;SDS011;63134;52.020;4.714;2023-04-25T08:58:14;7.43;;;1.90;;
22786;SDS011;63134;52.020;4.714;2023-04-25T09:01:00;11.70;;;2.20;;
22786;SDS011;63134;52.020;4.714;2023-04-25T09:03:50;8.93;;;2.67;;
22786;SDS011;63134;52.020;4.714;2023-04-25T09:06:37;9.95;;;2.35;;
22786;SDS011;63134;52.020;4.714;2023-04-25T09:09:35;4.43;;;1.30;;
22786;SDS011;63134;52.020;4.714;2023-04-25T09:12:23;4.57;;;1.38;;
22786;SDS011;63134;52.020;4.714;2023-04-25T09:15:11;4.85;;;1.65;;
22786;SDS011;63134;52.020;4.714;2023-04-25T09:18:10;7.55;;;1.40;;
22786;SDS011;63134;52.020;4.714;2023-04-25T09:21:08;10.15;;;1.85;;
22786;SDS011;63134;52.020;4.714;2023-04-25T09:24:00;15.65;;;2.55;;
22786;SDS011;63134;52.020;4.714;2023-04-25T09:26:46;8.10;;;1.77;;
22786;SDS011;63134;52.020;4.714;2023-04-25T09:29:33;7.05;;;1.67;;
22786;SDS011;63134;52.020;4.714;2023-04-25T09:32:22;9.30;;;1.80;;
22786;SDS011;63134;52.020;4.714;2023-04-25T09:35:12;8.93;;;1.77;;
22786;SDS011;63134;52.020;4.714;2023-04-25T09:38:14;5.13;;;1.60;;
22786;SDS011;63134;52.020;4.714;2023-04-25T09:41:26;5.17;;;1.97;;
22786;SDS011;63134;52.020;4.714;2023-04-25T09:44:22;5.57;;;1.42;;
22786;SDS011;63134;52.020;4.714;2023-04-25T09:47:12;5.93;;;1.58;;
22786;SDS011;63134;52.020;4.714;2023-04-25T09:50:02;10.13;;;1.83;;
22786;SDS011;63134;52.020;4.714;2023-04-25T09:53:03;5.57;;;1.70;;
22786;SDS011;63134;52.020;4.714;2023-04-25T09:56:10;8.15;;;1.95;;
22786;SDS011;63134;52.020;4.714;2023-04-25T09:58:56;4.63;;;1.63;;
22786;SDS011;63134;52.020;4.714;2023-04-25T10:01:42;5.50;;;1.70;;
22786;SDS011;63134;52.020;4.714;2023-04-25T10:04:40;10.35;;;1.85;;
22786;SDS011;63134;52.020;4.714;2023-04-25T10:07:36;12.25;;;2.30;;
22786;SDS011;63134;52.020;4.714;2023-04-25T10:10:26;12.63;;;2.22;;
22786;SDS011;63134;52.020;4.714;2023-04-25T10:13:16;5.47;;;1.40;;
22786;SDS011;63134;52.020;4.714;2023-04-25T10:16:03;7.82;;;1.77;;
22786;SDS011;63134;52.020;4.714;2023-04-25T10:18:49;9.77;;;1.98;;
22786;SDS011;63134;52.020;4.714;2023-04-25T10:21:36;12.38;;;2.13;;
22786;SDS011;63134;52.020;4.714;2023-04-25T10:24:26;7.65;;;1.90;;
22786;SDS011;63134;52.020;4.714;2023-04-25T10:27:12;7.07;;;2.15;;
22786;SDS011;63134;52.020;4.714;2023-04-25T10:30:05;14.18;;;2.83;;
22786;SDS011;63134;52.020;4.714;2023-04-25T10:32:56;10.70;;;2.45;;
22786;SDS011;63134;52.020;4.714;2023-04-25T10:35:44;12.38;;;2.15;;
22786;SDS011;63134;52.020;4.714;2023-04-25T10:38:30;15.20;;;2.10;;
22786;SDS011;63134;52.020;4.714;2023-04-25T10:41:21;11.40;;;2.47;;
22786;SDS011;63134;52.020;4.714;2023-04-25T10:44:08;15.32;;;2.30;;
22786;SDS011;63134;52.020;4.714;2023-04-25T10:46:57;7.68;;;2.10;;
22786;SDS011;63134;52.020;4.714;2023-04-25T10:49:44;11.50;;;2.00;;
22786;SDS011;63134;52.020;4.714;2023-04-25T10:52:30;10.15;;;2.08;;
22786;SDS011;63134;52.020;4.714;2023-04-25T10:55:18;6.32;;;1.73;;
22786;SDS011;63134;52.020;4.714;2023-04-25T10:58:05;11.52;;;2.08;;
22786;SDS011;63134;52.020;4.714;2023-04-25T11:00:51;9.32;;;2.15;;
22786;SDS011;63134;52.020;4.714;2023-04-25T11:03:42;11.30;;;2.25;;
22786;SDS011;63134;52.020;4.714;2023-04-25T11:06:31;14.43;;;2.50;;
22786;SDS011;63134;52.020;4.714;2023-04-25T11:09:27;6.60;;;1.80;;
22786;SDS011;63134;52.020;4.714;2023-04-25T11:12:13;13.93;;;2.28;;
22786;SDS011;63134;52.020;4.714;2023-04-25T11:15:03;15.27;;;2.83;;
22786;SDS011;63134;52.020;4.714;2023-04-25T11:17:51;8.00;;;1.92;;
22786;SDS011;63134;52.020;4.714;2023-04-25T11:20:41;11.48;;;1.85;;
22786;SDS011;63134;52.020;4.714;2023-04-25T11:23:30;7.18;;;2.10;;
22786;SDS011;63134;52.020;4.714;2023-04-25T11:26:16;8.75;;;2.00;;
22786;SDS011;63134;52.020;4.714;2023-04-25T11:29:04;11.98;;;2.03;;
22786;SDS011;63134;52.020;4.714;2023-04-25T11:31:50;6.95;;;1.80;;
22786;SDS011;63134;52.020;4.714;2023-04-25T11:34:35;4.28;;;1.35;;
22786;SDS011;63134;52.020;4.714;2023-04-25T11:37:21;7.68;;;2.03;;
22786;SDS011;63134;52.020;4.714;2023-04-25T11:40:07;11.88;;;2.03;;
22786;SDS011;63134;52.020;4.714;2023-04-25T11:42:54;4.13;;;1.58;;
22786;SDS011;63134;52.020;4.714;2023-04-25T11:45:45;7.43;;;2.05;;
22786;SDS011;63134;52.020;4.714;2023-04-25T11:48:36;9.30;;;1.90;;
22786;SDS011;63134;52.020;4.714;2023-04-25T11:51:25;9.13;;;1.92;;
22786;SDS011;63134;52.020;4.714;2023-04-25T11:54:12;14.93;;;2.40;;
22786;SDS011;63134;52.020;4.714;2023-04-25T11:56:57;7.97;;;1.90;;
22786;SDS011;63134;52.020;4.714;2023-04-25T11:59:43;8.45;;;1.80;;
22786;SDS011;63134;52.020;4.714;2023-04-25T12:02:29;11.80;;;2.20;;
22786;SDS011;63134;52.020;4.714;2023-04-25T12:05:17;7.60;;;1.98;;
22786;SDS011;63134;52.020;4.714;2023-04-25T12:08:16;7.47;;;1.90;;
22786;SDS011;63134;52.020;4.714;2023-04-25T12:11:02;9.60;;;1.52;;
22786;SDS011;63134;52.020;4.714;2023-04-25T12:13:51;6.60;;;1.80;;
22786;SDS011;63134;52.020;4.714;2023-04-25T12:16:44;12.73;;;2.22;;
22786;SDS011;63134;52.020;4.714;2023-04-25T12:19:34;7.93;;;1.58;;
22786;SDS011;63134;52.020;4.714;2023-04-25T12:22:22;5.07;;;1.52;;
22786;SDS011;63134;52.020;4.714;2023-04-25T12:25:08;8.27;;;1.83;;
22786;SDS011;63134;52.020;4.714;2023-04-25T12:27:54;7.60;;;1.65;;
22786;SDS011;63134;52.020;4.714;2023-04-25T12:33:51;7.40;;;1.77;;
22786;SDS011;63134;52.020;4.714;2023-04-25T12:36:36;7.13;;;1.70;;
22786;SDS011;63134;52.020;4.714;2023-04-25T12:39:22;7.10;;;1.60;;
22786;SDS011;63134;52.020;4.714;2023-04-25T12:42:09;6.63;;;1.98;;
22786;SDS011;63134;52.020;4.714;2023-04-25T12:44:58;4.55;;;1.55;;
22786;SDS011;63134;52.020;4.714;2023-04-25T12:47:43;9.05;;;1.90;;
22786;SDS011;63134;52.020;4.714;2023-04-25T12:50:29;7.95;;;1.80;;
22786;SDS011;63134;52.020;4.714;2023-04-25T12:53:16;5.57;;;1.42;;
22786;SDS011;63134;52.020;4.714;2023-04-25T12:56:03;7.95;;;1.33;;
22786;SDS011;63134;52.020;4.714;2023-04-25T12:58:48;7.15;;;1.98;;
22786;SDS011;63134;52.020;4.714;2023-04-25T13:01:34;8.43;;;2.00;;
22786;SDS011;63134;52.020;4.714;2023-04-25T13:04:20;6.80;;;1.60;;
22786;SDS011;63134;52.020;4.714;2023-04-25T13:07:06;6.60;;;2.10;;
22786;SDS011;63134;52.020;4.714;2023-04-25T13:09:53;6.97;;;1.80;;
22786;SDS011;63134;52.020;4.714;2023-04-25T13:12:39;8.63;;;1.75;;
22786;SDS011;63134;52.020;4.714;2023-04-25T13:15:25;5.50;;;1.75;;
22786;SDS011;63134;52.020;4.714;2023-04-25T13:18:10;7.25;;;1.52;;
22786;SDS011;63134;52.020;4.714;2023-04-25T13:20:56;11.63;;;1.80;;
22786;SDS011;63134;52.020;4.714;2023-04-25T13:23:42;9.15;;;1.88;;
22786;SDS011;63134;52.020;4.714;2023-04-25T13:26:29;9.02;;;1.83;;
22786;SDS011;63134;52.020;4.714;2023-04-25T13:29:23;7.28;;;2.03;;
22786;SDS011;63134;52.020;4.714;2023-04-25T13:32:09;9.73;;;2.00;;
22786;SDS011;63134;52.020;4.714;2023-04-25T13:34:55;11.00;;;1.90;;
22786;SDS011;63134;52.020;4.714;2023-04-25T13:37:41;6.20;;;1.90;;
22786;SDS011;63134;52.020;4.714;2023-04-25T13:40:27;10.45;;;2.17;;
22786;SDS011;63134;52.020;4.714;2023-04-25T13:43:21;11.25;;;2.28;;
22786;SDS011;63134;52.020;4.714;2023-04-25T13:46:07;11.52;;;2.10;;
22786;SDS011;63134;52.020;4.714;2023-04-25T13:49:09;5.72;;;1.60;;
22786;SDS011;63134;52.020;4.714;2023-04-25T13:51:57;6.43;;;1.85;;
22786;SDS011;63134;52.020;4.714;2023-04-25T13:54:42;8.13;;;2.15;;
22786;SDS011;63134;52.020;4.714;2023-04-25T13:57:27;9.23;;;1.88;;
22786;SDS011;63134;52.020;4.714;2023-04-25T14:00:13;9.18;;;2.15;;
22786;SDS011;63134;52.020;4.714;2023-04-25T14:02:59;11.70;;;2.05;;
22786;SDS011;63134;52.020;4.714;2023-04-25T14:05:46;9.38;;;1.92;;
22786;SDS011;63134;52.020;4.714;2023-04-25T14:08:31;8.73;;;2.45;;
22786;SDS011;63134;52.020;4.714;2023-04-25T14:11:17;9.65;;;2.28;;
22786;SDS011;63134;52.020;4.714;2023-04-25T14:14:03;5.30;;;1.73;;
22786;SDS011;63134;52.020;4.714;2023-04-25T14:16:49;6.88;;;2.00;;
22786;SDS011;63134;52.020;4.714;2023-04-25T14:19:35;7.60;;;1.73;;
22786;SDS011;63134;52.020;4.714;2023-04-25T14:22:31;8.13;;;1.65;;
22786;SDS011;63134;52.020;4.714;2023-04-25T14:25:19;5.18;;;1.60;;
22786;SDS011;63134;52.020;4.714;2023-04-25T14:28:05;6.43;;;2.10;;
22786;SDS011;63134;52.020;4.714;2023-04-25T14:30:51;10.95;;;1.73;;
22786;SDS011;63134;52.020;4.714;2023-04-25T14:33:36;7.75;;;2.08;;
22786;SDS011;63134;52.020;4.714;2023-04-25T14:36:28;6.38;;;1.52;;
22786;SDS011;63134;52.020;4.714;2023-04-25T14:39:14;5.20;;;1.58;;
22786;SDS011;63134;52.020;4.714;2023-04-25T14:42:01;5.40;;;1.55;;
22786;SDS011;63134;52.020;4.714;2023-04-25T14:44:48;9.18;;;2.33;;
22786;SDS011;63134;52.020;4.714;2023-04-25T14:47:36;6.97;;;1.60;;
22786;SDS011;63134;52.020;4.714;2023-04-25T14:50:22;9.57;;;1.80;;
22786;SDS011;63134;52.020;4.714;2023-04-25T14:53:07;7.55;;;2.05;;
22786;SDS011;63134;52.020;4.714;2023-04-25T14:55:53;5.93;;;1.70;;
22786;SDS011;63134;52.020;4.714;2023-04-25T14:58:39;9.30;;;1.80;;
22786;SDS011;63134;52.020;4.714;2023-04-25T15:01:24;9.07;;;2.05;;
22786;SDS011;63134;52.020;4.714;2023-04-25T15:04:10;6.75;;;2.22;;
22786;SDS011;63134;52.020;4.714;2023-04-25T15:07:02;9.52;;;1.60;;
22786;SDS011;63134;52.020;4.714;2023-04-25T15:09:48;6.10;;;1.70;;
22786;SDS011;63134;52.020;4.714;2023-04-25T15:12:34;6.40;;;1.50;;
22786;SDS011;63134;52.020;4.714;2023-04-25T15:15:19;10.10;;;1.85;;
22786;SDS011;63134;52.020;4.714;2023-04-25T15:18:10;11.27;;;1.88;;
22786;SDS011;63134;52.020;4.714;2023-04-25T15:20:56;7.50;;;1.90;;
22786;SDS011;63134;52.020;4.714;2023-04-25T15:23:41;9.32;;;2.15;;
22786;SDS011;63134;52.020;4.714;2023-04-25T15:26:26;5.70;;;1.90;;
22786;SDS011;63134;52.020;4.714;2023-04-25T15:29:12;6.57;;;2.13;;
22786;SDS011;63134;52.020;4.714;2023-04-25T15:31:57;10.40;;;2.00;;
22786;SDS011;63134;52.020;4.714;2023-04-25T15:34:43;12.98;;;2.05;;
22786;SDS011;63134;52.020;4.714;2023-04-25T15:37:28;10.68;;;2.17;;
22786;SDS011;63134;52.020;4.714;2023-04-25T15:40:16;6.90;;;1.77;;
22786;SDS011;63134;52.020;4.714;2023-04-25T15:43:01;9.80;;;2.33;;
22786;SDS011;63134;52.020;4.714;2023-04-25T15:45:46;5.88;;;1.85;;
22786;SDS011;63134;52.020;4.714;2023-04-25T15:48:34;7.35;;;1.58;;
22786;SDS011;63134;52.020;4.714;2023-04-25T15:51:20;10.88;;;1.52;;
22786;SDS011;63134;52.020;4.714;2023-04-25T15:54:06;7.25;;;1.75;;
22786;SDS011;63134;52.020;4.714;2023-04-25T15:56:52;8.40;;;1.95;;
22786;SDS011;63134;52.020;4.714;2023-04-25T15:59:37;8.55;;;2.28;;
22786;SDS011;63134;52.020;4.714;2023-04-25T16:02:23;7.53;;;1.60;;
22786;SDS011;63134;52.020;4.714;2023-04-25T16:05:09;10.52;;;1.92;;
22786;SDS011;63134;52.020;4.714;2023-04-25T16:07:58;6.82;;;1.60;;
22786;SDS011;63134;52.020;4.714;2023-04-25T16:10:47;8.70;;;1.67;;
22786;SDS011;63134;52.020;4.714;2023-04-25T16:13:36;6.50;;;1.70;;
22786;SDS011;63134;52.020;4.714;2023-04-25T16:16:21;5.20;;;1.60;;
22786;SDS011;63134;52.020;4.714;2023-04-25T16:19:06;7.30;;;1.92;;
22786;SDS011;63134;52.020;4.714;2023-04-25T16:21:52;8.65;;;1.80;;
22786;SDS011;63134;52.020;4.714;2023-04-25T16:24:38;8.70;;;2.05;;
22786;SDS011;63134;52.020;4.714;2023-04-25T16:27:23;7.47;;;2.00;;
22786;SDS011;63134;52.020;4.714;2023-04-25T16:30:09;6.85;;;1.88;;
22786;SDS011;63134;52.020;4.714;2023-04-25T16:33:04;6.50;;;1.52;;
22786;SDS011;63134;52.020;4.714;2023-04-25T16:35:49;7.63;;;1.88;;
22786;SDS011;63134;52.020;4.714;2023-04-25T16:38:37;7.50;;;1.98;;
22786;SDS011;63134;52.020;4.714;2023-04-25T16:41:23;10.07;;;2.10;;
22786;SDS011;63134;52.020;4.714;2023-04-25T16:44:09;10.38;;;2.22;;
22786;SDS011;63134;52.020;4.714;2023-04-25T16:46:55;9.80;;;2.53;;
22786;SDS011;63134;52.020;4.714;2023-04-25T16:49:40;10.85;;;2.72;;
22786;SDS011;63134;52.020;4.714;2023-04-25T16:52:26;7.57;;;1.65;;
22786;SDS011;63134;52.020;4.714;2023-04-25T16:55:11;7.15;;;2.10;;
22786;SDS011;63134;52.020;4.714;2023-04-25T16:57:57;7.22;;;1.85;;